createdAt,value
2023-04-03T00:00:00.747Z,24.53
2023-04-03T00:01:00.757Z,24.54
2023-04-03T00:02:00.830Z,24.52
2023-04-03T00:03:00.792Z,24.54
2023-04-03T00:04:00.878Z,24.59
2023-04-03T00:05:00.867Z,24.57
2023-04-03T00:06:00.921Z,24.58
2023-04-03T00:07:00.992Z,24.60
2023-04-03T00:08:01.026Z,24.59
2023-04-03T00:09:01.076Z,24.59
2023-04-03T00:10:01.133Z,24.59
2023-04-03T00:11:01.185Z,24.58
2023-04-03T00:12:01.221Z,24.54
2023-04-03T00:13:01.279Z,24.46
2023-04-03T00:14:01.315Z,24.44
2023-04-03T00:15:01.376Z,24.43
2023-04-03T00:16:01.423Z,24.33
2023-04-03T00:17:01.536Z,24.31
2023-04-03T00:18:01.684Z,24.27
2023-04-03T00:19:01.585Z,24.25
2023-04-03T00:20:01.643Z,24.25
2023-04-03T00:21:01.705Z,24.26
2023-04-03T00:22:01.742Z,24.30
2023-04-03T00:23:01.806Z,24.25
2023-04-03T00:24:01.855Z,24.24
2023-04-03T00:25:01.887Z,24.26
2023-04-03T00:26:01.949Z,24.29
2023-04-03T00:27:02.013Z,24.33
2023-04-03T00:28:02.058Z,24.33
2023-04-03T00:29:02.094Z,24.33
2023-04-03T00:30:02.203Z,24.31
2023-04-03T00:31:02.215Z,24.30
2023-04-03T00:32:02.235Z,24.33
2023-04-03T00:33:02.328Z,24.32
2023-04-03T00:34:02.330Z,24.34
2023-04-03T00:35:02.390Z,24.31
2023-04-03T00:36:02.521Z,24.32
2023-04-03T00:37:02.583Z,24.33
2023-04-03T00:38:02.540Z,24.35
2023-04-03T00:39:02.591Z,24.37
2023-04-03T00:40:02.629Z,24.40
2023-04-03T00:41:02.697Z,24.43
2023-04-03T00:42:02.751Z,24.42
2023-04-03T00:43:02.785Z,24.40
2023-04-03T00:44:02.868Z,24.42
2023-04-03T00:45:02.899Z,24.42
2023-04-03T00:46:02.994Z,24.42
2023-04-03T00:47:03.008Z,24.42
2023-04-03T00:48:03.070Z,24.40
2023-04-03T00:49:03.093Z,24.38
2023-04-03T00:50:03.139Z,24.39
2023-04-03T00:51:03.192Z,24.37
2023-04-03T00:52:03.245Z,24.38
2023-04-03T00:53:03.302Z,24.37
2023-04-03T00:54:03.363Z,24.35
2023-04-03T00:55:03.444Z,24.38
2023-04-03T00:56:03.465Z,24.39
2023-04-03T00:57:03.534Z,24.37
2023-04-03T00:58:03.598Z,24.40
2023-04-03T00:59:03.641Z,24.39
2023-04-03T01:00:03.706Z,24.38
2023-04-03T01:01:03.748Z,24.36
2023-04-03T01:02:03.849Z,24.37
2023-04-03T01:03:03.923Z,24.36
2023-04-03T01:04:04.029Z,24.37
2023-04-03T01:05:03.984Z,24.33
2023-04-03T01:06:04.045Z,24.30
2023-04-03T01:07:04.120Z,24.32
2023-04-03T01:08:04.115Z,24.26
2023-04-03T01:09:04.174Z,24.24
2023-04-03T01:10:04.236Z,24.19
2023-04-03T01:11:04.276Z,24.19
2023-04-03T01:12:04.349Z,24.15
2023-04-03T01:13:04.369Z,24.08
2023-04-03T01:14:04.375Z,24.05
2023-04-03T01:15:04.385Z,24.03
2023-04-03T01:16:04.442Z,23.97
2023-04-03T01:17:04.469Z,23.93
2023-04-03T01:18:04.557Z,23.96
2023-04-03T01:19:04.598Z,23.85
2023-04-03T01:20:04.638Z,23.90
2023-04-03T01:21:04.681Z,23.91
2023-04-03T01:22:04.754Z,23.89
2023-04-03T01:23:04.830Z,23.79
2023-04-03T01:24:04.883Z,23.79
2023-04-03T01:25:04.941Z,23.76
2023-04-03T01:26:05.001Z,23.81
2023-04-03T01:27:05.053Z,23.80
2023-04-03T01:28:05.104Z,23.76
2023-04-03T01:29:05.170Z,23.77
2023-04-03T01:30:05.198Z,23.74
2023-04-03T01:31:05.228Z,23.80
2023-04-03T01:32:05.237Z,23.77
2023-04-03T01:33:05.272Z,23.79
2023-04-03T01:34:05.279Z,23.80
2023-04-03T01:35:05.339Z,23.85
2023-04-03T01:36:05.387Z,23.84
2023-04-03T01:37:05.424Z,23.85
2023-04-03T01:38:05.508Z,23.86
2023-04-03T01:39:05.559Z,23.84
2023-04-03T01:40:05.603Z,23.86
2023-04-03T01:41:05.671Z,23.88
2023-04-03T01:42:05.732Z,23.88
2023-04-03T01:43:05.795Z,23.86
2023-04-03T01:44:05.838Z,23.86
2023-04-03T01:45:05.917Z,23.79
2023-04-03T01:46:06.028Z,23.79
2023-04-03T01:47:06.035Z,23.77
2023-04-03T01:48:06.107Z,23.72
2023-04-03T01:49:06.155Z,23.73
2023-04-03T01:50:06.214Z,23.68
2023-04-03T01:51:06.274Z,23.68
2023-04-03T01:52:06.333Z,23.68
2023-04-03T01:53:06.433Z,23.68
2023-04-03T01:54:06.548Z,23.67
2023-04-03T01:55:06.540Z,23.64
2023-04-03T01:56:06.582Z,23.65
2023-04-03T01:57:06.734Z,23.68
2023-04-03T01:58:06.720Z,23.63
2023-04-03T01:59:06.783Z,23.62
2023-04-03T02:00:06.831Z,23.67
2023-04-03T02:01:06.960Z,23.64
2023-04-03T02:02:06.952Z,23.65
2023-04-03T02:03:07.038Z,23.66
2023-04-03T02:04:07.117Z,23.66
2023-04-03T02:05:07.178Z,23.67
2023-04-03T02:06:07.228Z,23.65
2023-04-03T02:07:07.261Z,23.65
2023-04-03T02:08:07.325Z,23.67
2023-04-03T02:09:07.401Z,23.68
2023-04-03T02:10:07.443Z,23.66
2023-04-03T02:11:07.500Z,23.64
2023-04-03T02:12:07.568Z,23.64
2023-04-03T02:13:07.641Z,23.64
2023-04-03T02:14:07.723Z,23.67
2023-04-03T02:15:07.771Z,23.66
2023-04-03T02:16:07.874Z,23.64
2023-04-03T02:17:07.888Z,23.66
2023-04-03T02:18:08.047Z,23.64
2023-04-03T02:19:07.988Z,23.62
2023-04-03T02:20:08.073Z,23.59
2023-04-03T02:21:08.116Z,23.56
2023-04-03T02:22:08.169Z,23.58
2023-04-03T02:23:08.266Z,23.55
2023-04-03T02:24:08.309Z,23.53
2023-04-03T02:25:08.357Z,23.58
2023-04-03T02:26:08.415Z,23.54
2023-04-03T02:27:08.476Z,23.53
2023-04-03T02:28:08.529Z,23.54
2023-04-03T02:29:08.615Z,23.52
2023-04-03T02:30:08.655Z,23.54
2023-04-03T02:31:08.770Z,23.55
2023-04-03T02:32:08.774Z,23.56
2023-04-03T02:33:08.851Z,23.54
2023-04-03T02:34:08.884Z,23.57
2023-04-03T02:35:08.965Z,23.53
2023-04-03T02:36:09.031Z,23.55
2023-04-03T02:37:09.081Z,23.54
2023-04-03T02:38:09.162Z,23.53
2023-04-03T02:39:09.210Z,23.48
2023-04-03T02:40:09.279Z,23.51
2023-04-03T02:41:09.345Z,23.49
2023-04-03T02:42:09.417Z,23.46
2023-04-03T02:43:09.457Z,23.51
2023-04-03T02:44:09.505Z,23.48
2023-04-03T02:45:09.580Z,23.47
2023-04-03T02:46:09.685Z,23.40
2023-04-03T02:47:09.706Z,23.40
2023-04-03T02:48:09.790Z,23.36
2023-04-03T02:49:09.836Z,23.34
2023-04-03T02:50:09.898Z,23.22
2023-04-03T02:51:09.950Z,23.15
2023-04-03T02:52:10.026Z,23.11
2023-04-03T02:53:10.078Z,23.14
2023-04-03T02:54:10.117Z,23.17
2023-04-03T02:55:10.208Z,23.18
2023-04-03T02:56:10.254Z,23.20
2023-04-03T02:57:10.328Z,23.22
2023-04-03T02:58:10.371Z,23.22
2023-04-03T02:59:10.478Z,23.26
2023-04-03T03:00:10.514Z,23.27
2023-04-03T03:01:10.629Z,23.31
2023-04-03T03:02:10.626Z,23.30
2023-04-03T03:03:10.685Z,23.32
2023-04-03T03:04:10.773Z,23.36
2023-04-03T03:05:10.840Z,23.34
2023-04-03T03:06:10.880Z,23.38
2023-04-03T03:07:10.917Z,23.37
2023-04-03T03:08:11.014Z,23.33
2023-04-03T03:09:11.073Z,23.25
2023-04-03T03:10:11.132Z,23.22
2023-04-03T03:11:11.178Z,23.16
2023-04-03T03:12:11.275Z,23.02
2023-04-03T03:13:11.312Z,23.03
2023-04-03T03:14:11.385Z,22.95
2023-04-03T03:15:11.433Z,22.86
2023-04-03T03:16:11.544Z,22.86
2023-04-03T03:17:11.576Z,22.79
2023-04-03T03:18:11.642Z,22.86
2023-04-03T03:19:11.675Z,22.67
2023-04-03T03:20:11.740Z,22.63
2023-04-03T03:21:11.815Z,22.59
2023-04-03T03:22:11.882Z,22.58
2023-04-03T03:23:11.930Z,22.57
2023-04-03T03:24:11.989Z,22.50
2023-04-03T03:25:12.072Z,22.51
2023-04-03T03:26:12.129Z,22.47
2023-04-03T03:27:12.217Z,22.57
2023-04-03T03:28:12.232Z,22.54
2023-04-03T03:29:12.314Z,22.44
2023-04-03T03:30:12.410Z,22.38
2023-04-03T03:31:12.445Z,22.43
2023-04-03T03:32:12.534Z,22.34
2023-04-03T03:33:12.605Z,22.30
2023-04-03T03:34:12.632Z,22.28
2023-04-03T03:35:12.684Z,22.28
2023-04-03T03:36:12.772Z,22.27
2023-04-03T03:37:12.824Z,22.23
2023-04-03T03:38:12.873Z,22.27
2023-04-03T03:39:12.921Z,22.26
2023-04-03T03:40:12.990Z,22.30
2023-04-03T03:41:13.041Z,22.36
2023-04-03T03:42:13.134Z,22.39
2023-04-03T03:43:13.183Z,22.42
2023-04-03T03:44:14.390Z,22.44
2023-04-03T03:45:13.322Z,22.50
2023-04-03T03:46:13.392Z,22.50
2023-04-03T03:47:13.457Z,22.49
2023-04-03T03:48:13.486Z,22.51
2023-04-03T03:49:13.554Z,22.51
2023-04-03T03:50:13.620Z,22.50
2023-04-03T03:51:13.677Z,22.52
2023-04-03T03:52:13.753Z,22.54
2023-04-03T03:53:13.801Z,22.52
2023-04-03T03:54:13.861Z,22.56
2023-04-03T03:55:13.933Z,22.54
2023-04-03T03:56:13.960Z,22.52
2023-04-03T03:57:13.989Z,22.57
2023-04-03T03:58:14.025Z,22.53
2023-04-03T03:59:14.016Z,22.52
2023-04-03T04:00:14.083Z,22.51
2023-04-03T04:01:14.154Z,22.52
2023-04-03T04:02:14.247Z,22.53
2023-04-03T04:03:14.344Z,22.48
2023-04-03T04:04:14.369Z,22.48
2023-04-03T04:05:14.367Z,22.50
2023-04-03T04:06:14.430Z,22.49
2023-04-03T04:07:14.518Z,22.49
2023-04-03T04:08:14.561Z,22.43
2023-04-03T04:09:14.632Z,22.41
2023-04-03T04:10:14.700Z,22.39
2023-04-03T04:11:14.770Z,22.33
2023-04-03T04:12:14.853Z,22.34
2023-04-03T04:13:14.889Z,22.32
2023-04-03T04:14:14.958Z,22.30
2023-04-03T04:15:15.003Z,22.33
2023-04-03T04:16:15.100Z,22.30
2023-04-03T04:17:15.156Z,22.28
2023-04-03T04:18:15.178Z,22.24
2023-04-03T04:19:15.236Z,22.24
2023-04-03T04:20:15.277Z,22.28
2023-04-03T04:21:15.345Z,22.28
2023-04-03T04:22:15.437Z,22.28
2023-04-03T04:23:15.467Z,22.34
2023-04-03T04:24:15.535Z,22.35
2023-04-03T04:25:15.570Z,22.38
2023-04-03T04:26:15.646Z,22.41
2023-04-03T04:27:15.722Z,22.43
2023-04-03T04:28:15.768Z,22.42
2023-04-03T04:29:15.831Z,22.42
2023-04-03T04:30:15.898Z,22.41
2023-04-03T04:31:15.971Z,22.41
2023-04-03T04:32:16.020Z,22.41
2023-04-03T04:33:16.077Z,22.41
2023-04-03T04:34:16.139Z,22.46
2023-04-03T04:35:16.881Z,22.45
2023-04-03T04:36:16.652Z,22.44
2023-04-03T04:37:16.350Z,22.44
2023-04-03T04:38:16.403Z,22.46
2023-04-03T04:39:16.451Z,22.44
2023-04-03T04:40:16.527Z,22.41
2023-04-03T04:41:16.572Z,22.40
2023-04-03T04:42:17.843Z,22.37
2023-04-03T04:43:16.726Z,22.35
2023-04-03T04:44:16.766Z,22.32
2023-04-03T04:45:16.849Z,22.29
2023-04-03T04:46:16.959Z,22.27
2023-04-03T04:47:17.015Z,22.26
2023-04-03T04:48:17.029Z,22.28
2023-04-03T04:49:17.090Z,22.24
2023-04-03T04:50:17.161Z,22.24
2023-04-03T04:51:17.248Z,22.25
2023-04-03T04:52:17.285Z,22.27
2023-04-03T04:53:17.324Z,22.27
2023-04-03T04:54:17.405Z,22.25
2023-04-03T04:55:17.473Z,22.24
2023-04-03T04:56:17.534Z,22.23
2023-04-03T04:57:17.616Z,22.19
2023-04-03T04:58:17.642Z,22.18
2023-04-03T04:59:18.486Z,22.17
2023-04-03T05:00:17.758Z,22.15
2023-04-03T05:01:17.851Z,22.11
2023-04-03T05:02:17.913Z,22.09
2023-04-03T05:03:17.938Z,22.09
2023-04-03T05:04:18.083Z,22.06
2023-04-03T05:05:18.125Z,22.07
2023-04-03T05:06:18.141Z,22.09
2023-04-03T05:07:18.222Z,22.05
2023-04-03T05:08:18.270Z,22.06
2023-04-03T05:09:18.343Z,22.05
2023-04-03T05:10:18.387Z,22.04
2023-04-03T05:11:18.459Z,22.05
2023-04-03T05:12:18.557Z,22.01
2023-04-03T05:13:18.570Z,22.06
2023-04-03T05:14:18.636Z,22.04
2023-04-03T05:15:18.710Z,22.03
2023-04-03T05:16:18.801Z,22.04
2023-04-03T05:17:18.880Z,22.05
2023-04-03T05:18:18.892Z,22.03
2023-04-03T05:19:18.972Z,22.05
2023-04-03T05:20:19.022Z,22.00
2023-04-03T05:21:19.125Z,22.01
2023-04-03T05:22:19.208Z,21.97
2023-04-03T05:23:19.223Z,22.01
2023-04-03T05:24:19.277Z,22.07
2023-04-03T05:25:19.340Z,22.03
2023-04-03T05:26:19.442Z,22.02
2023-04-03T05:27:19.473Z,21.97
2023-04-03T05:28:19.576Z,21.96
2023-04-03T05:29:19.608Z,22.01
2023-04-03T05:30:19.658Z,21.95
2023-04-03T05:31:19.772Z,22.02
2023-04-03T05:32:19.781Z,21.98
2023-04-03T05:33:19.836Z,21.98
2023-04-03T05:34:19.898Z,21.94
2023-04-03T05:35:19.978Z,22.02
2023-04-03T05:36:20.085Z,22.00
2023-04-03T05:37:20.119Z,21.99
2023-04-03T05:38:20.165Z,21.98
2023-04-03T05:39:20.231Z,22.01
2023-04-03T05:40:20.272Z,21.99
2023-04-03T05:41:20.357Z,21.94
2023-04-03T05:42:20.420Z,21.92
2023-04-03T05:43:20.448Z,21.90
2023-04-03T05:44:20.505Z,21.91
2023-04-03T05:45:20.568Z,21.91
2023-04-03T05:46:20.654Z,21.89
2023-04-03T05:47:20.729Z,21.85
2023-04-03T05:48:20.758Z,21.91
2023-04-03T05:49:20.835Z,21.89
2023-04-03T05:50:20.883Z,21.90
2023-04-03T05:51:20.965Z,21.88
2023-04-03T05:52:21.010Z,21.88
2023-04-03T05:53:21.090Z,21.87
2023-04-03T05:54:21.130Z,21.91
2023-04-03T05:55:21.191Z,21.89
2023-04-03T05:56:21.288Z,21.87
2023-04-03T05:57:21.363Z,21.89
2023-04-03T05:58:21.431Z,21.87
2023-04-03T05:59:21.444Z,21.87
2023-04-03T06:00:21.511Z,21.85
2023-04-03T06:01:21.585Z,21.89
2023-04-03T06:02:21.708Z,21.91
2023-04-03T06:03:21.939Z,21.85
2023-04-03T06:04:21.825Z,21.87
2023-04-03T06:05:21.823Z,21.90
2023-04-03T06:06:21.877Z,21.88
2023-04-03T06:07:21.942Z,21.85
2023-04-03T06:08:21.913Z,21.82
2023-04-03T06:09:21.983Z,21.83
2023-04-03T06:10:22.051Z,21.83
2023-04-03T06:11:22.081Z,21.80
2023-04-03T06:12:22.184Z,21.77
2023-04-03T06:13:22.223Z,21.77
2023-04-03T06:14:22.282Z,21.79
2023-04-03T06:15:22.340Z,21.78
2023-04-03T06:16:22.434Z,21.77
2023-04-03T06:17:22.572Z,21.78
2023-04-03T06:18:22.507Z,21.77
2023-04-03T06:19:22.566Z,21.79
2023-04-03T06:20:22.639Z,21.78
2023-04-03T06:21:22.710Z,21.76
2023-04-03T06:22:22.786Z,21.78
2023-04-03T06:23:22.820Z,21.79
2023-04-03T06:24:22.947Z,21.79
2023-04-03T06:25:22.935Z,21.78
2023-04-03T06:26:23.016Z,21.78
2023-04-03T06:27:23.090Z,21.78
2023-04-03T06:28:23.113Z,21.79
2023-04-03T06:29:23.400Z,21.79
2023-04-03T06:30:23.241Z,21.81
2023-04-03T06:31:23.323Z,21.79
2023-04-03T06:32:23.380Z,21.79
2023-04-03T06:33:23.410Z,21.78
2023-04-03T06:34:23.486Z,21.78
2023-04-03T06:35:23.519Z,21.78
2023-04-03T06:36:23.602Z,21.77
2023-04-03T06:37:23.694Z,21.79
2023-04-03T06:38:23.696Z,21.77
2023-04-03T06:39:23.806Z,21.78
2023-04-03T06:40:23.821Z,21.80
2023-04-03T06:41:23.865Z,21.80
2023-04-03T06:42:23.949Z,21.74
2023-04-03T06:43:24.391Z,21.77
2023-04-03T06:44:24.026Z,21.74
2023-04-03T06:45:24.079Z,21.78
2023-04-03T06:46:24.189Z,21.78
2023-04-03T06:47:24.226Z,21.80
2023-04-03T06:48:24.256Z,21.77
2023-04-03T06:49:24.295Z,21.76
2023-04-03T06:50:24.325Z,21.75
2023-04-03T06:51:24.375Z,21.75
2023-04-03T06:52:24.450Z,21.74
2023-04-03T06:53:24.495Z,21.75
2023-04-03T06:54:24.542Z,21.75
2023-04-03T06:55:24.589Z,21.73
2023-04-03T06:56:24.648Z,21.77
2023-04-03T06:57:24.735Z,21.78
2023-04-03T06:58:24.758Z,21.75
2023-04-03T06:59:24.816Z,21.76
2023-04-03T07:00:24.850Z,21.76
2023-04-03T07:01:24.940Z,21.76
2023-04-03T07:02:25.040Z,21.76
2023-04-03T07:03:25.013Z,21.75
2023-04-03T07:04:25.098Z,21.76
2023-04-03T07:05:25.137Z,21.72
2023-04-03T07:06:25.184Z,21.72
2023-04-03T07:07:25.278Z,21.75
2023-04-03T07:08:25.289Z,21.71
2023-04-03T07:09:25.348Z,21.72
2023-04-03T07:10:25.416Z,21.69
2023-04-03T07:11:25.462Z,21.68
2023-04-03T07:12:25.553Z,21.69
2023-04-03T07:13:25.745Z,21.71
2023-04-03T07:14:25.595Z,21.71
2023-04-03T07:15:25.659Z,21.70
2023-04-03T07:16:25.806Z,21.70
2023-04-03T07:17:25.797Z,21.70
2023-04-03T07:18:25.836Z,21.68
2023-04-03T07:19:25.860Z,21.65
2023-04-03T07:20:25.921Z,21.65
2023-04-03T07:21:25.956Z,21.66
2023-04-03T07:22:26.015Z,21.65
2023-04-03T07:23:26.061Z,21.67
2023-04-03T07:24:26.103Z,21.67
2023-04-03T07:25:26.133Z,21.67
2023-04-03T07:26:26.193Z,21.65
2023-04-03T07:27:26.259Z,21.61
2023-04-03T07:28:26.268Z,21.60
2023-04-03T07:29:26.338Z,21.60
2023-04-03T07:30:26.364Z,21.64
2023-04-03T07:31:26.423Z,21.62
2023-04-03T07:32:26.478Z,21.60
2023-04-03T07:33:26.511Z,21.61
2023-04-03T07:34:26.552Z,21.60
2023-04-03T07:35:26.607Z,21.62
2023-04-03T07:36:26.662Z,21.63
2023-04-03T07:37:26.703Z,21.64
2023-04-03T07:38:26.764Z,21.65
2023-04-03T07:39:26.780Z,21.63
2023-04-03T07:40:26.839Z,21.67
2023-04-03T07:41:26.829Z,21.63
2023-04-03T07:42:26.854Z,21.60
2023-04-03T07:43:26.830Z,21.62
2023-04-03T07:44:26.829Z,21.62
2023-04-03T07:45:26.898Z,21.63
2023-04-03T07:46:26.851Z,21.65
2023-04-03T07:47:26.884Z,21.65
2023-04-03T07:48:26.885Z,21.62
2023-04-03T07:49:26.841Z,21.64
2023-04-03T07:50:26.836Z,21.60
2023-04-03T07:51:26.857Z,21.61
2023-04-03T07:52:26.878Z,21.61
2023-04-03T07:53:26.916Z,21.60
2023-04-03T07:54:26.933Z,21.60
2023-04-03T07:55:26.993Z,21.61
2023-04-03T07:56:27.066Z,21.60
2023-04-03T07:57:27.094Z,21.61
2023-04-03T07:58:27.113Z,21.59
2023-04-03T07:59:27.122Z,21.58
2023-04-03T08:00:27.181Z,21.56
2023-04-03T08:01:27.232Z,21.57
2023-04-03T08:02:27.256Z,21.58
2023-04-03T08:03:27.338Z,21.60
2023-04-03T08:04:27.369Z,21.58
2023-04-03T08:05:27.340Z,21.58
2023-04-03T08:06:41.999Z,21.56
2023-04-03T08:07:28.362Z,21.56
2023-04-03T08:08:27.404Z,21.56
2023-04-03T08:09:27.378Z,21.54
2023-04-03T08:10:27.334Z,21.54
2023-04-03T08:11:27.346Z,21.55
2023-04-03T08:12:27.364Z,21.55
2023-04-03T08:13:27.351Z,21.53
2023-04-03T08:14:27.312Z,21.51
2023-04-03T08:15:27.303Z,21.53
2023-04-03T08:16:27.314Z,21.53
2023-04-03T08:17:27.349Z,21.54
2023-04-03T08:18:27.293Z,21.54
2023-04-03T08:19:27.290Z,21.53
2023-04-03T08:20:27.291Z,21.52
2023-04-03T08:21:27.282Z,21.52
2023-04-03T08:22:27.271Z,21.55
2023-04-03T08:23:27.284Z,21.52
2023-04-03T08:24:27.319Z,21.52
2023-04-03T08:25:27.333Z,21.52
2023-04-03T08:26:27.375Z,21.54
2023-04-03T08:27:27.418Z,21.55
2023-04-03T08:28:27.439Z,21.56
2023-04-03T08:29:27.469Z,21.56
2023-04-03T08:30:27.487Z,21.58
2023-04-03T08:31:27.581Z,21.56
2023-04-03T08:32:27.585Z,21.60
2023-04-03T08:33:27.566Z,21.59
2023-04-03T08:34:27.587Z,21.58
2023-04-03T08:35:27.632Z,21.58
2023-04-03T08:36:27.675Z,21.57
2023-04-03T08:37:27.663Z,21.59
2023-04-03T08:38:27.730Z,21.59
2023-04-03T08:39:27.795Z,21.57
2023-04-03T08:40:27.803Z,21.59
2023-04-03T08:41:27.802Z,21.59
2023-04-03T08:42:27.826Z,21.61
2023-04-03T08:43:27.843Z,21.63
2023-04-03T08:44:27.942Z,21.61
2023-04-03T08:45:27.899Z,21.62
2023-04-03T08:46:28.013Z,21.62
2023-04-03T08:47:28.062Z,21.62
2023-04-03T08:48:28.129Z,21.61
2023-04-03T08:49:28.218Z,21.61
2023-04-03T08:50:29.342Z,21.58
2023-04-03T08:51:28.292Z,21.58
2023-04-03T08:52:28.350Z,21.55
2023-04-03T08:53:28.425Z,21.49
2023-04-03T08:54:28.456Z,21.46
2023-04-03T08:55:28.499Z,21.49
2023-04-03T08:56:28.565Z,21.54
2023-04-03T08:57:28.635Z,21.56
2023-04-03T08:58:28.668Z,21.53
2023-04-03T08:59:28.718Z,21.54
2023-04-03T09:00:28.847Z,21.56
2023-04-03T09:01:28.853Z,21.54
2023-04-03T09:02:28.908Z,21.51
2023-04-03T09:03:28.961Z,21.46
2023-04-03T09:04:28.930Z,21.47
2023-04-03T09:05:28.984Z,21.46
2023-04-03T09:06:29.027Z,21.39
2023-04-03T09:07:29.061Z,21.41
2023-04-03T09:08:29.088Z,21.39
2023-04-03T09:09:29.130Z,21.38
2023-04-03T09:10:29.162Z,21.37
2023-04-03T09:11:29.199Z,21.36
2023-04-03T09:12:29.233Z,21.37
2023-04-03T09:13:29.268Z,21.36
2023-04-03T09:14:29.293Z,21.33
2023-04-03T09:15:38.680Z,21.34
2023-04-03T09:16:30.496Z,21.34
2023-04-03T09:17:29.320Z,21.29
2023-04-03T09:18:29.309Z,21.31
2023-04-03T09:19:29.307Z,21.34
2023-04-03T09:20:29.300Z,21.27
2023-04-03T09:21:29.292Z,21.26
2023-04-03T09:22:30.215Z,21.31
2023-04-03T09:23:29.292Z,21.25
2023-04-03T09:24:29.312Z,21.20
2023-04-03T09:25:31.637Z,21.11
2023-04-03T09:26:29.349Z,21.02
2023-04-03T09:27:29.388Z,21.03
2023-04-03T09:28:33.067Z,20.96
2023-04-03T09:29:30.354Z,20.95
2023-04-03T09:30:29.328Z,20.92
2023-04-03T09:31:29.365Z,20.91
2023-04-03T09:32:29.448Z,20.85
2023-04-03T09:33:29.310Z,20.87
2023-04-03T09:34:29.338Z,20.85
2023-04-03T09:35:36.230Z,20.84
2023-04-03T09:36:30.375Z,20.82
2023-04-03T09:37:29.313Z,20.80
2023-04-03T09:38:29.293Z,20.86
2023-04-03T09:39:29.324Z,20.88
2023-04-03T09:40:29.277Z,20.81
2023-04-03T09:41:29.270Z,20.83
2023-04-03T09:42:29.246Z,20.81
2023-04-03T09:43:29.282Z,20.72
2023-04-03T09:44:29.258Z,20.78
2023-04-03T09:45:29.300Z,20.72
2023-04-03T09:46:29.395Z,20.74
2023-04-03T09:47:29.415Z,20.72
2023-04-03T09:48:29.506Z,20.74
2023-04-03T09:49:29.520Z,20.70
2023-04-03T09:50:29.545Z,20.72
2023-04-03T09:51:29.588Z,20.71
2023-04-03T09:52:29.673Z,20.65
2023-04-03T09:53:29.684Z,20.63
2023-04-03T09:54:29.733Z,20.60
2023-04-03T09:55:29.794Z,20.57
2023-04-03T09:56:29.821Z,20.54
2023-04-03T09:57:29.951Z,20.58
2023-04-03T09:58:42.560Z,20.53
2023-04-03T09:59:30.905Z,20.55
2023-04-03T10:00:29.935Z,20.54
2023-04-03T10:01:29.989Z,20.52
2023-04-03T10:02:29.933Z,20.49
2023-04-03T10:03:29.888Z,20.56
2023-04-03T10:04:30.002Z,20.52
2023-04-03T10:05:29.868Z,20.54
2023-04-03T10:06:29.878Z,20.50
2023-04-03T10:07:29.864Z,20.48
2023-04-03T10:08:29.872Z,20.45
2023-04-03T10:09:29.846Z,20.43
2023-04-03T10:10:29.898Z,20.38
2023-04-03T10:11:29.915Z,20.33
2023-04-03T10:12:29.997Z,20.30
2023-04-03T10:13:30.963Z,20.29
2023-04-03T10:14:30.041Z,20.29
2023-04-03T10:15:30.050Z,20.30
2023-04-03T10:16:30.127Z,20.29
2023-04-03T10:17:30.135Z,20.32
2023-04-03T10:18:30.189Z,20.32
2023-04-03T10:19:30.236Z,20.33
2023-04-03T10:20:30.319Z,20.35
2023-04-03T10:21:30.277Z,20.35
2023-04-03T10:22:30.328Z,20.35
2023-04-03T10:23:30.362Z,20.40
2023-04-03T10:24:30.429Z,20.38
2023-04-03T10:25:30.454Z,20.40
2023-04-03T10:26:30.535Z,20.39
2023-04-03T10:27:30.542Z,20.42
2023-04-03T10:28:30.628Z,20.46
2023-04-03T10:29:30.656Z,20.44
2023-04-03T10:30:30.698Z,20.45
2023-04-03T10:31:30.908Z,20.43
2023-04-03T10:32:30.807Z,20.43
2023-04-03T10:33:30.887Z,20.43
2023-04-03T10:34:30.894Z,20.44
2023-04-03T10:35:31.024Z,20.47
2023-04-03T10:36:31.104Z,20.46
2023-04-03T10:37:31.089Z,20.47
2023-04-03T10:38:31.133Z,20.46
2023-04-03T10:39:31.180Z,20.50
2023-04-03T10:40:31.234Z,20.52
2023-04-03T10:41:31.317Z,20.54
2023-04-03T10:42:31.353Z,20.57
2023-04-03T10:43:31.440Z,20.56
2023-04-03T10:44:31.488Z,20.59
2023-04-03T10:45:31.550Z,20.61
2023-04-03T10:46:31.683Z,20.63
2023-04-03T10:47:34.059Z,20.64
2023-04-03T10:48:31.678Z,20.63
2023-04-03T10:49:31.657Z,20.62
2023-04-03T10:50:31.637Z,20.66
2023-04-03T10:51:31.645Z,20.66
2023-04-03T10:52:31.719Z,20.66
2023-04-03T10:53:31.660Z,20.69
2023-04-03T10:54:31.656Z,20.72
2023-04-03T10:55:31.620Z,20.75
2023-04-03T10:56:31.615Z,20.73
2023-04-03T10:57:31.645Z,20.72
2023-04-03T10:58:31.645Z,20.70
2023-04-03T10:59:31.663Z,20.74
2023-04-03T11:00:31.574Z,20.73
2023-04-03T11:01:31.629Z,20.75
2023-04-03T11:02:31.957Z,20.78
2023-04-03T11:03:31.675Z,20.79
2023-04-03T11:04:31.552Z,20.80
2023-04-03T11:05:31.547Z,20.75
2023-04-03T11:06:31.560Z,20.66
2023-04-03T11:07:31.545Z,20.57
2023-04-03T11:08:31.658Z,20.58
2023-04-03T11:09:31.540Z,20.45
2023-04-03T11:10:31.525Z,20.42
2023-04-03T11:11:31.524Z,20.46
2023-04-03T11:12:31.521Z,20.49
2023-04-03T11:13:31.543Z,20.56
2023-04-03T11:14:31.505Z,20.42
2023-04-03T11:15:31.484Z,20.34
2023-04-03T11:16:35.621Z,20.33
2023-04-03T11:17:32.545Z,20.45
2023-04-03T11:18:31.484Z,20.68
2023-04-03T11:19:31.461Z,20.73
2023-04-03T11:20:31.488Z,20.81
2023-04-03T11:21:31.472Z,20.73
2023-04-03T11:22:31.444Z,20.81
2023-04-03T11:23:42.356Z,20.71
2023-04-03T11:24:32.522Z,20.73
2023-04-03T11:25:31.440Z,20.74
2023-04-03T11:26:31.419Z,20.75
2023-04-03T11:27:31.413Z,20.75
2023-04-03T11:28:31.431Z,20.73
2023-04-03T11:29:35.565Z,20.73
2023-04-03T11:30:31.415Z,20.70
2023-04-03T11:31:31.500Z,20.68
2023-04-03T11:32:31.445Z,20.68
2023-04-03T11:33:31.405Z,20.63
2023-04-03T11:34:31.388Z,20.59
2023-04-03T11:35:31.399Z,20.56
2023-04-03T11:36:35.066Z,20.50
2023-04-03T11:37:32.357Z,20.54
2023-04-03T11:38:31.391Z,20.55
2023-04-03T11:39:31.366Z,20.48
2023-04-03T11:40:31.425Z,20.47
2023-04-03T11:41:31.369Z,20.49
2023-04-03T11:42:31.384Z,20.46
2023-04-03T11:43:31.408Z,20.36
2023-04-03T11:44:31.350Z,20.43
2023-04-03T11:45:31.414Z,20.41
2023-04-03T11:46:31.502Z,20.36
2023-04-03T11:47:31.562Z,20.31
2023-04-03T11:48:31.602Z,20.28
2023-04-03T11:49:31.633Z,20.27
2023-04-03T11:50:31.705Z,20.22
2023-04-03T11:51:31.732Z,20.19
2023-04-03T11:52:31.801Z,20.15
2023-04-03T11:53:31.907Z,20.15
2023-04-03T11:54:38.432Z,20.23
2023-04-03T11:55:32.925Z,20.17
2023-04-03T11:56:32.050Z,20.15
2023-04-03T11:57:31.984Z,20.15
2023-04-03T11:58:31.924Z,20.10
2023-04-03T11:59:31.873Z,20.09
2023-04-03T12:00:31.890Z,20.15
2023-04-03T12:01:31.879Z,20.16
2023-04-03T12:02:36.242Z,20.08
2023-04-03T12:03:32.953Z,20.10
2023-04-03T12:04:31.899Z,20.04
2023-04-03T12:05:31.869Z,20.06
2023-04-03T12:06:31.830Z,20.04
2023-04-03T12:07:31.816Z,20.01
2023-04-03T12:08:31.835Z,20.00
2023-04-03T12:09:31.817Z,19.98
2023-04-03T12:10:32.812Z,19.95
2023-04-03T12:11:31.815Z,19.97
2023-04-03T12:12:31.965Z,19.98
2023-04-03T12:13:31.968Z,19.94
2023-04-03T12:14:32.010Z,20.01
2023-04-03T12:15:32.040Z,20.02
2023-04-03T12:16:32.174Z,19.96
2023-04-03T12:17:32.185Z,19.97
2023-04-03T12:18:33.241Z,19.94
2023-04-03T12:19:41.188Z,20.03
2023-04-03T12:20:33.272Z,19.97
2023-04-03T12:21:32.265Z,20.00
2023-04-03T12:22:32.269Z,19.99
2023-04-03T12:23:32.284Z,20.02
2023-04-03T12:24:32.249Z,19.96
2023-04-03T12:25:32.262Z,19.98
2023-04-03T12:26:38.710Z,19.97
2023-04-03T12:27:33.245Z,19.95
2023-04-03T12:28:32.369Z,19.98
2023-04-03T12:29:32.233Z,19.99
2023-04-03T12:30:32.210Z,19.95
2023-04-03T12:31:32.232Z,19.94
2023-04-03T12:32:32.241Z,19.91
2023-04-03T12:33:32.254Z,19.91
2023-04-03T12:34:32.196Z,19.88
2023-04-03T12:35:32.259Z,19.96
2023-04-03T12:36:32.167Z,20.00
2023-04-03T12:37:32.241Z,20.00
2023-04-03T12:38:32.302Z,20.02
2023-04-03T12:39:32.343Z,19.98
2023-04-03T12:40:32.409Z,19.96
2023-04-03T12:41:32.465Z,19.90
2023-04-03T12:42:32.525Z,19.94
2023-04-03T12:43:32.583Z,19.95
2023-04-03T12:44:32.759Z,19.91
2023-04-03T12:45:32.749Z,19.89
2023-04-03T12:46:32.879Z,19.94
2023-04-03T12:47:32.834Z,19.95
2023-04-03T12:48:32.877Z,19.96
2023-04-03T12:49:32.941Z,19.99
2023-04-03T12:50:33.009Z,19.94
2023-04-03T12:51:33.062Z,19.97
2023-04-03T12:52:33.112Z,19.98